Berezino, Belarus

2:02 PM MSK on September 05, 2015 (GMT +0300)
Minsk-2 | | Change Station
CLOSE
Current Station
Airport
Location: Minsk In-Min,
Elevation: 669 ft
Nearby Weather Stations

Elev 669 ft 53.88 °N, 28.03 °E | Updated 32 minutes ago

Mostly Cloudy
Mostly Cloudy
61 °F
Feels Like 61 °F
N
7
Wind Variable Wind from SW
Gusts 13 mph

Today
High -- | Low -- °F
--% Chance of Precip.
Yesterday
High -- | Low -- °F
Precip. -- in
6:18 AM 7:45 PM
Waning Gibbous, 49% visible
Pressure 29.89 in
Visibility 6.2 miles
Clouds Scattered Clouds 1900 ft
Mostly Cloudy 7600 ft
Dew Point 50 °F
Humidity 68%
Rainfall 0.00 in
Snow Depth Not available.
UV 3 out of 12
Pollen Not available.
Air Quality Not available.
Flu Activity Not available.
METAR UMMS 051030Z 22003G06MPS 140V280 9999 SCT019 BKN076 16/10 Q1012 R31/CLRD// NOSIG
Pressure 29.89 in
Visibility 6.2 miles
Clouds Scattered Clouds 1900 ft
Mostly Cloudy 7600 ft
Dew Point 50 °F
Humidity 68%
Rainfall 0.00 in
Snow Depth Not available.
UV 3 out of 12
Pollen Not available.
Air Quality Not available.
Flu Activity Not available.
METAR UMMS 051030Z 22003G06MPS 140V280 9999 SCT019 BKN076 16/10 Q1012 R31/CLRD// NOSIG

10-Day Weather Forecast

×

Almanac

Astronomy

Sep. 05, 2015 Rise Set
Actual Time
Civil Twilight
Nautical Twilight
Astronomical Twilight
Moon
Length of Visible Light
Length of Day
Tomorrow will be .
, % of the Moon is Illuminated

Today's Extremes

Country Highs Country Lows

Community

WunderPhotos

Upload Photos

1,852,445 photos uploaded!

WunderBlogs® & News

Nearby

Air Quality

  Air Quality AQ Index Pollutant
Not available.

Snow Depth

Station Depth Elevation

Earthquake Activity

City Distance Mag. Time & Date
Minimum magnitude displayed is 2.5.

Coastal Water Temperatures

Place Temperature

Stations

Nearby Weather Stations

Station Location Temp. Windchill Dew Point Humidity Wind Precip. Elev Updated Type